BEARDSLEY LAKE (BRD)

Elevation: 3398' · STANISLAUS R basin · Operator: Oakdale South San Joaquin Irrigation District

Provisional data, subject to change.
Query executed Monday at 22:57:47   clock

Select a sensor type for a plot of data.
Note: Reservoir Flows are daily averages.

Earlier

Date STORAGE    RES CHG    OUTFLOW    PPT INC   
 AF   AF   CFS   INCHES  
05/28/2016 91312 637 1000 0.00
05/29/2016 91950 638 1127 0.00
05/30/2016 92534 584 1275 0.00
05/31/2016 93133 599 1502 0.00
06/01/2016 93769 636 1788 0.00
06/02/2016 94046 277 2163 0.00
06/03/2016 93840 -206 2354 0.00
06/04/2016 93352 -488 2430 0.00
06/05/2016 93056 -296 2307 0.00
06/06/2016 92915 -141 2142 0.00
06/07/2016 92971 56 2080 0.00
06/08/2016 93105 134 2088 0.00
06/09/2016 92978 -127 2090 0.00
06/10/2016 92633 -345 2020 0.00
06/11/2016 92372 -261 1710 0.00
06/12/2016 92182 -190 1564 0.00
06/13/2016 92210 28 1282 0.34
06/14/2016 92583 373 899 0.00
06/15/2016 93161 578 715 0.00
06/16/2016 93614 453 722 0.00
06/17/2016 93911 297 708 0.00
06/18/2016 94074 163 702 0.00
06/19/2016 94144 70 706 0.00
06/20/2016 94301 157 671 0.00
06/21/2016 94478 177 669 0.00
06/22/2016 94712 234 688 0.00
06/23/2016 95267 555 688 0.00
06/24/2016 95873 606 685 0.00
06/25/2016 96173 300 693 0.00
06/26/2016 96302 129 684 0.00
06/27/2016 -- -- -- --

Later | Latest

Warning! This data is preliminary and subject to revision.

Show BRD Map | Plot BRD Data | 1 Month BRD Data | Real-Time BRD Data | BRD Info